sensor_id;sensor_type;location;lat;lon;timestamp;P1;durP1;ratioP1;P2;durP2;ratioP2
6661;SDS011;3367;48.714;8.994;2023-05-07T00:01:06;5.60;;;4.00;;
6661;SDS011;3367;48.714;8.994;2023-05-07T00:03:33;4.00;;;3.60;;
6661;SDS011;3367;48.714;8.994;2023-05-07T00:05:59;4.70;;;4.30;;
6661;SDS011;3367;48.714;8.994;2023-05-07T00:08:26;5.60;;;3.87;;
6661;SDS011;3367;48.714;8.994;2023-05-07T00:10:53;4.07;;;3.67;;
6661;SDS011;3367;48.714;8.994;2023-05-07T00:13:20;3.63;;;3.33;;
6661;SDS011;3367;48.714;8.994;2023-05-07T00:15:46;4.23;;;3.83;;
6661;SDS011;3367;48.714;8.994;2023-05-07T00:18:14;4.30;;;4.00;;
6661;SDS011;3367;48.714;8.994;2023-05-07T00:20:41;8.83;;;3.80;;
6661;SDS011;3367;48.714;8.994;2023-05-07T00:23:08;3.30;;;3.10;;
6661;SDS011;3367;48.714;8.994;2023-05-07T00:25:35;3.40;;;3.10;;
6661;SDS011;3367;48.714;8.994;2023-05-07T00:28:01;6.00;;;3.50;;
6661;SDS011;3367;48.714;8.994;2023-05-07T00:30:28;4.23;;;3.50;;
6661;SDS011;3367;48.714;8.994;2023-05-07T00:32:55;4.97;;;3.97;;
6661;SDS011;3367;48.714;8.994;2023-05-07T00:35:24;3.80;;;3.50;;
6661;SDS011;3367;48.714;8.994;2023-05-07T00:37:50;7.33;;;5.07;;
6661;SDS011;3367;48.714;8.994;2023-05-07T00:40:17;4.87;;;4.30;;
6661;SDS011;3367;48.714;8.994;2023-05-07T00:42:44;4.90;;;4.43;;
6661;SDS011;3367;48.714;8.994;2023-05-07T00:45:12;6.30;;;5.00;;
6661;SDS011;3367;48.714;8.994;2023-05-07T00:47:39;4.77;;;4.30;;
6661;SDS011;3367;48.714;8.994;2023-05-07T00:50:06;3.80;;;3.43;;
6661;SDS011;3367;48.714;8.994;2023-05-07T00:52:37;4.27;;;3.60;;
6661;SDS011;3367;48.714;8.994;2023-05-07T00:55:04;4.63;;;3.20;;
6661;SDS011;3367;48.714;8.994;2023-05-07T00:57:32;3.77;;;3.37;;
6661;SDS011;3367;48.714;8.994;2023-05-07T01:00:02;4.40;;;3.70;;
6661;SDS011;3367;48.714;8.994;2023-05-07T01:02:30;3.90;;;3.33;;
6661;SDS011;3367;48.714;8.994;2023-05-07T01:04:56;4.93;;;3.50;;
6661;SDS011;3367;48.714;8.994;2023-05-07T01:07:23;8.13;;;6.83;;
6661;SDS011;3367;48.714;8.994;2023-05-07T01:09:51;4.83;;;4.30;;
6661;SDS011;3367;48.714;8.994;2023-05-07T01:12:18;6.63;;;4.27;;
6661;SDS011;3367;48.714;8.994;2023-05-07T01:14:46;5.67;;;3.93;;
6661;SDS011;3367;48.714;8.994;2023-05-07T01:17:14;3.57;;;3.37;;
6661;SDS011;3367;48.714;8.994;2023-05-07T01:19:41;3.00;;;2.80;;
6661;SDS011;3367;48.714;8.994;2023-05-07T01:22:09;11.33;;;4.73;;
6661;SDS011;3367;48.714;8.994;2023-05-07T01:24:38;10.83;;;6.63;;
6661;SDS011;3367;48.714;8.994;2023-05-07T01:27:05;11.20;;;7.40;;
6661;SDS011;3367;48.714;8.994;2023-05-07T01:29:31;15.03;;;7.97;;
6661;SDS011;3367;48.714;8.994;2023-05-07T01:31:59;14.17;;;6.60;;
6661;SDS011;3367;48.714;8.994;2023-05-07T01:34:26;6.40;;;4.80;;
6661;SDS011;3367;48.714;8.994;2023-05-07T01:36:56;6.27;;;4.70;;
6661;SDS011;3367;48.714;8.994;2023-05-07T01:39:24;6.10;;;3.90;;
6661;SDS011;3367;48.714;8.994;2023-05-07T01:41:53;5.07;;;3.57;;
6661;SDS011;3367;48.714;8.994;2023-05-07T01:44:20;3.33;;;3.03;;
6661;SDS011;3367;48.714;8.994;2023-05-07T01:46:48;4.67;;;3.40;;
6661;SDS011;3367;48.714;8.994;2023-05-07T01:49:15;3.63;;;2.97;;
6661;SDS011;3367;48.714;8.994;2023-05-07T01:51:42;3.37;;;3.10;;
6661;SDS011;3367;48.714;8.994;2023-05-07T01:54:09;4.30;;;2.93;;
6661;SDS011;3367;48.714;8.994;2023-05-07T01:56:36;3.63;;;3.10;;
6661;SDS011;3367;48.714;8.994;2023-05-07T01:59:04;3.63;;;3.33;;
6661;SDS011;3367;48.714;8.994;2023-05-07T02:01:31;6.97;;;3.17;;
6661;SDS011;3367;48.714;8.994;2023-05-07T02:03:58;3.23;;;2.97;;
6661;SDS011;3367;48.714;8.994;2023-05-07T02:06:24;3.33;;;3.03;;
6661;SDS011;3367;48.714;8.994;2023-05-07T02:08:51;5.17;;;3.60;;
6661;SDS011;3367;48.714;8.994;2023-05-07T02:11:17;3.57;;;3.23;;
6661;SDS011;3367;48.714;8.994;2023-05-07T02:13:44;3.60;;;2.93;;
6661;SDS011;3367;48.714;8.994;2023-05-07T02:16:12;3.67;;;3.27;;
6661;SDS011;3367;48.714;8.994;2023-05-07T02:18:39;3.10;;;2.90;;
6661;SDS011;3367;48.714;8.994;2023-05-07T02:21:06;3.27;;;2.97;;
6661;SDS011;3367;48.714;8.994;2023-05-07T02:23:33;4.83;;;3.07;;
6661;SDS011;3367;48.714;8.994;2023-05-07T02:25:59;3.77;;;3.40;;
6661;SDS011;3367;48.714;8.994;2023-05-07T02:28:26;7.03;;;3.33;;
6661;SDS011;3367;48.714;8.994;2023-05-07T02:30:53;4.23;;;3.37;;
6661;SDS011;3367;48.714;8.994;2023-05-07T02:33:21;3.63;;;3.07;;
6661;SDS011;3367;48.714;8.994;2023-05-07T02:35:47;3.20;;;2.90;;
6661;SDS011;3367;48.714;8.994;2023-05-07T02:38:14;5.33;;;3.27;;
6661;SDS011;3367;48.714;8.994;2023-05-07T02:40:41;3.53;;;3.30;;
6661;SDS011;3367;48.714;8.994;2023-05-07T02:43:07;3.13;;;2.93;;
6661;SDS011;3367;48.714;8.994;2023-05-07T02:45:34;4.77;;;3.37;;
6661;SDS011;3367;48.714;8.994;2023-05-07T02:48:02;4.07;;;2.73;;
6661;SDS011;3367;48.714;8.994;2023-05-07T02:50:31;3.63;;;3.33;;
6661;SDS011;3367;48.714;8.994;2023-05-07T02:52:59;4.80;;;3.10;;
6661;SDS011;3367;48.714;8.994;2023-05-07T02:55:26;3.90;;;2.97;;
6661;SDS011;3367;48.714;8.994;2023-05-07T02:57:52;3.50;;;3.20;;
6661;SDS011;3367;48.714;8.994;2023-05-07T03:00:20;3.03;;;2.83;;
6661;SDS011;3367;48.714;8.994;2023-05-07T03:02:47;4.40;;;3.00;;
6661;SDS011;3367;48.714;8.994;2023-05-07T03:05:13;3.13;;;2.83;;
6661;SDS011;3367;48.714;8.994;2023-05-07T03:07:41;5.03;;;3.07;;
6661;SDS011;3367;48.714;8.994;2023-05-07T03:10:10;3.07;;;2.87;;
6661;SDS011;3367;48.714;8.994;2023-05-07T03:12:37;8.00;;;3.37;;
6661;SDS011;3367;48.714;8.994;2023-05-07T03:15:04;3.20;;;2.90;;
6661;SDS011;3367;48.714;8.994;2023-05-07T03:17:31;3.20;;;2.90;;
6661;SDS011;3367;48.714;8.994;2023-05-07T03:19:58;2.63;;;2.53;;
6661;SDS011;3367;48.714;8.994;2023-05-07T03:22:24;3.23;;;3.00;;
6661;SDS011;3367;48.714;8.994;2023-05-07T03:24:52;3.70;;;3.40;;
6661;SDS011;3367;48.714;8.994;2023-05-07T03:27:19;4.90;;;3.20;;
6661;SDS011;3367;48.714;8.994;2023-05-07T03:29:46;2.93;;;2.73;;
6661;SDS011;3367;48.714;8.994;2023-05-07T03:32:12;3.57;;;3.27;;
6661;SDS011;3367;48.714;8.994;2023-05-07T03:34:39;3.50;;;3.20;;
6661;SDS011;3367;48.714;8.994;2023-05-07T03:37:06;3.40;;;2.70;;
6661;SDS011;3367;48.714;8.994;2023-05-07T03:39:32;3.37;;;3.13;;
6661;SDS011;3367;48.714;8.994;2023-05-07T03:42:01;3.23;;;2.93;;
6661;SDS011;3367;48.714;8.994;2023-05-07T03:44:27;5.30;;;3.27;;
6661;SDS011;3367;48.714;8.994;2023-05-07T03:46:54;4.20;;;3.90;;
6661;SDS011;3367;48.714;8.994;2023-05-07T03:49:21;4.90;;;4.10;;
6661;SDS011;3367;48.714;8.994;2023-05-07T03:51:48;5.90;;;5.10;;
6661;SDS011;3367;48.714;8.994;2023-05-07T03:54:14;6.13;;;4.97;;
6661;SDS011;3367;48.714;8.994;2023-05-07T03:56:41;4.27;;;3.97;;
6661;SDS011;3367;48.714;8.994;2023-05-07T03:59:09;5.07;;;3.80;;
6661;SDS011;3367;48.714;8.994;2023-05-07T04:01:36;6.27;;;4.13;;
6661;SDS011;3367;48.714;8.994;2023-05-07T04:04:02;5.40;;;3.90;;
6661;SDS011;3367;48.714;8.994;2023-05-07T04:06:29;4.50;;;3.97;;
6661;SDS011;3367;48.714;8.994;2023-05-07T04:08:56;5.57;;;3.83;;
6661;SDS011;3367;48.714;8.994;2023-05-07T04:11:23;5.27;;;3.80;;
6661;SDS011;3367;48.714;8.994;2023-05-07T04:13:50;4.13;;;3.50;;
6661;SDS011;3367;48.714;8.994;2023-05-07T04:16:18;3.67;;;3.33;;
6661;SDS011;3367;48.714;8.994;2023-05-07T04:18:45;3.63;;;3.33;;
6661;SDS011;3367;48.714;8.994;2023-05-07T04:21:14;4.43;;;3.30;;
6661;SDS011;3367;48.714;8.994;2023-05-07T04:23:42;4.67;;;3.83;;
6661;SDS011;3367;48.714;8.994;2023-05-07T04:26:09;3.40;;;3.20;;
6661;SDS011;3367;48.714;8.994;2023-05-07T04:28:36;3.73;;;3.43;;
6661;SDS011;3367;48.714;8.994;2023-05-07T04:31:02;6.00;;;3.70;;
6661;SDS011;3367;48.714;8.994;2023-05-07T04:33:31;3.07;;;2.83;;
6661;SDS011;3367;48.714;8.994;2023-05-07T04:35:58;4.20;;;3.80;;
6661;SDS011;3367;48.714;8.994;2023-05-07T04:38:27;3.33;;;3.03;;
6661;SDS011;3367;48.714;8.994;2023-05-07T04:40:54;4.53;;;2.83;;
6661;SDS011;3367;48.714;8.994;2023-05-07T04:43:21;3.43;;;3.00;;
6661;SDS011;3367;48.714;8.994;2023-05-07T04:45:49;2.67;;;2.47;;
6661;SDS011;3367;48.714;8.994;2023-05-07T04:48:16;4.70;;;2.80;;
6661;SDS011;3367;48.714;8.994;2023-05-07T04:50:45;3.37;;;2.57;;
6661;SDS011;3367;48.714;8.994;2023-05-07T04:53:13;3.00;;;2.80;;
6661;SDS011;3367;48.714;8.994;2023-05-07T04:55:40;2.90;;;2.70;;
6661;SDS011;3367;48.714;8.994;2023-05-07T04:58:07;3.07;;;2.77;;
6661;SDS011;3367;48.714;8.994;2023-05-07T05:00:34;3.23;;;2.83;;
6661;SDS011;3367;48.714;8.994;2023-05-07T05:03:01;3.20;;;3.00;;
6661;SDS011;3367;48.714;8.994;2023-05-07T05:05:28;3.17;;;2.97;;
6661;SDS011;3367;48.714;8.994;2023-05-07T05:07:56;3.83;;;2.93;;
6661;SDS011;3367;48.714;8.994;2023-05-07T05:10:23;2.87;;;2.67;;
6661;SDS011;3367;48.714;8.994;2023-05-07T05:12:49;3.37;;;3.07;;
6661;SDS011;3367;48.714;8.994;2023-05-07T05:15:16;3.37;;;3.07;;
6661;SDS011;3367;48.714;8.994;2023-05-07T05:17:43;3.07;;;2.87;;
6661;SDS011;3367;48.714;8.994;2023-05-07T05:20:10;6.20;;;2.70;;
6661;SDS011;3367;48.714;8.994;2023-05-07T05:22:37;4.60;;;3.07;;
6661;SDS011;3367;48.714;8.994;2023-05-07T05:25:05;3.33;;;2.97;;
6661;SDS011;3367;48.714;8.994;2023-05-07T05:27:32;3.20;;;2.93;;
6661;SDS011;3367;48.714;8.994;2023-05-07T05:30:00;3.93;;;3.53;;
6661;SDS011;3367;48.714;8.994;2023-05-07T05:32:26;3.40;;;3.10;;
6661;SDS011;3367;48.714;8.994;2023-05-07T05:34:53;3.33;;;3.13;;
6661;SDS011;3367;48.714;8.994;2023-05-07T05:37:20;3.77;;;3.47;;
6661;SDS011;3367;48.714;8.994;2023-05-07T05:39:47;3.90;;;3.60;;
6661;SDS011;3367;48.714;8.994;2023-05-07T05:42:15;3.40;;;3.10;;
6661;SDS011;3367;48.714;8.994;2023-05-07T05:44:41;3.43;;;3.23;;
6661;SDS011;3367;48.714;8.994;2023-05-07T05:47:08;3.43;;;3.17;;
6661;SDS011;3367;48.714;8.994;2023-05-07T05:49:35;4.30;;;3.07;;
6661;SDS011;3367;48.714;8.994;2023-05-07T05:52:01;5.33;;;3.20;;
6661;SDS011;3367;48.714;8.994;2023-05-07T05:54:28;5.93;;;3.40;;
6661;SDS011;3367;48.714;8.994;2023-05-07T05:56:55;3.90;;;3.30;;
6661;SDS011;3367;48.714;8.994;2023-05-07T05:59:24;3.13;;;2.83;;
6661;SDS011;3367;48.714;8.994;2023-05-07T06:01:50;3.43;;;3.13;;
6661;SDS011;3367;48.714;8.994;2023-05-07T06:04:17;3.67;;;3.37;;
6661;SDS011;3367;48.714;8.994;2023-05-07T06:06:44;3.80;;;3.50;;
6661;SDS011;3367;48.714;8.994;2023-05-07T06:09:10;6.77;;;4.47;;
6661;SDS011;3367;48.714;8.994;2023-05-07T06:11:37;5.87;;;4.00;;
6661;SDS011;3367;48.714;8.994;2023-05-07T06:14:05;3.70;;;3.40;;
6661;SDS011;3367;48.714;8.994;2023-05-07T06:16:34;4.03;;;3.40;;
6661;SDS011;3367;48.714;8.994;2023-05-07T06:19:01;5.17;;;3.57;;
6661;SDS011;3367;48.714;8.994;2023-05-07T06:21:27;6.10;;;3.60;;
6661;SDS011;3367;48.714;8.994;2023-05-07T06:23:55;7.93;;;3.50;;
6661;SDS011;3367;48.714;8.994;2023-05-07T06:26:22;5.90;;;3.33;;
6661;SDS011;3367;48.714;8.994;2023-05-07T06:28:48;3.57;;;3.20;;
6661;SDS011;3367;48.714;8.994;2023-05-07T06:31:15;4.07;;;3.23;;
6661;SDS011;3367;48.714;8.994;2023-05-07T06:33:46;3.83;;;3.03;;
6661;SDS011;3367;48.714;8.994;2023-05-07T06:36:14;3.30;;;3.00;;
6661;SDS011;3367;48.714;8.994;2023-05-07T06:38:40;4.77;;;2.87;;
6661;SDS011;3367;48.714;8.994;2023-05-07T06:41:07;3.73;;;2.87;;
6661;SDS011;3367;48.714;8.994;2023-05-07T06:43:34;2.97;;;2.77;;
6661;SDS011;3367;48.714;8.994;2023-05-07T06:46:01;2.60;;;2.30;;
6661;SDS011;3367;48.714;8.994;2023-05-07T06:48:28;3.60;;;2.73;;
6661;SDS011;3367;48.714;8.994;2023-05-07T06:50:56;3.00;;;2.63;;
6661;SDS011;3367;48.714;8.994;2023-05-07T06:53:23;2.63;;;2.43;;
6661;SDS011;3367;48.714;8.994;2023-05-07T06:55:50;3.17;;;2.40;;
6661;SDS011;3367;48.714;8.994;2023-05-07T06:58:18;2.43;;;2.23;;
6661;SDS011;3367;48.714;8.994;2023-05-07T07:00:44;3.33;;;2.43;;
6661;SDS011;3367;48.714;8.994;2023-05-07T07:03:11;4.27;;;2.93;;
6661;SDS011;3367;48.714;8.994;2023-05-07T07:05:38;2.53;;;2.33;;
6661;SDS011;3367;48.714;8.994;2023-05-07T07:08:07;2.50;;;2.17;;
6661;SDS011;3367;48.714;8.994;2023-05-07T07:10:34;2.60;;;2.10;;
6661;SDS011;3367;48.714;8.994;2023-05-07T07:13:00;2.73;;;2.10;;
6661;SDS011;3367;48.714;8.994;2023-05-07T07:15:27;2.80;;;2.43;;
6661;SDS011;3367;48.714;8.994;2023-05-07T07:17:54;3.13;;;2.30;;
6661;SDS011;3367;48.714;8.994;2023-05-07T07:20:20;2.67;;;2.57;;
6661;SDS011;3367;48.714;8.994;2023-05-07T07:22:47;3.50;;;2.83;;
6661;SDS011;3367;48.714;8.994;2023-05-07T07:25:15;3.57;;;3.27;;
6661;SDS011;3367;48.714;8.994;2023-05-07T07:27:42;3.23;;;3.03;;
6661;SDS011;3367;48.714;8.994;2023-05-07T07:30:09;2.87;;;2.63;;
6661;SDS011;3367;48.714;8.994;2023-05-07T07:32:37;4.83;;;2.67;;
6661;SDS011;3367;48.714;8.994;2023-05-07T07:35:04;2.70;;;2.50;;
6661;SDS011;3367;48.714;8.994;2023-05-07T07:37:31;3.83;;;2.70;;
6661;SDS011;3367;48.714;8.994;2023-05-07T07:39:58;2.10;;;2.00;;
6661;SDS011;3367;48.714;8.994;2023-05-07T07:42:27;2.77;;;2.57;;
6661;SDS011;3367;48.714;8.994;2023-05-07T07:44:54;5.10;;;2.53;;
6661;SDS011;3367;48.714;8.994;2023-05-07T07:47:22;2.40;;;2.30;;
6661;SDS011;3367;48.714;8.994;2023-05-07T07:49:48;2.73;;;2.63;;
6661;SDS011;3367;48.714;8.994;2023-05-07T07:52:15;2.90;;;2.50;;
6661;SDS011;3367;48.714;8.994;2023-05-07T07:54:42;2.83;;;2.63;;
6661;SDS011;3367;48.714;8.994;2023-05-07T07:57:09;2.63;;;2.43;;
6661;SDS011;3367;48.714;8.994;2023-05-07T07:59:37;3.13;;;2.30;;
6661;SDS011;3367;48.714;8.994;2023-05-07T08:02:04;2.40;;;2.20;;
6661;SDS011;3367;48.714;8.994;2023-05-07T08:04:31;2.37;;;2.17;;
6661;SDS011;3367;48.714;8.994;2023-05-07T08:06:58;2.33;;;2.13;;
6661;SDS011;3367;48.714;8.994;2023-05-07T08:09:25;2.70;;;2.50;;
6661;SDS011;3367;48.714;8.994;2023-05-07T08:11:51;3.67;;;2.70;;
6661;SDS011;3367;48.714;8.994;2023-05-07T08:14:18;6.93;;;2.40;;
6661;SDS011;3367;48.714;8.994;2023-05-07T08:16:46;2.80;;;2.60;;
6661;SDS011;3367;48.714;8.994;2023-05-07T08:19:13;2.27;;;2.17;;
6661;SDS011;3367;48.714;8.994;2023-05-07T08:21:40;2.67;;;2.47;;
6661;SDS011;3367;48.714;8.994;2023-05-07T08:24:07;4.20;;;2.30;;
6661;SDS011;3367;48.714;8.994;2023-05-07T08:26:33;2.13;;;1.93;;
6661;SDS011;3367;48.714;8.994;2023-05-07T08:29:00;3.23;;;2.20;;
6661;SDS011;3367;48.714;8.994;2023-05-07T08:31:27;1.77;;;1.57;;
6661;SDS011;3367;48.714;8.994;2023-05-07T08:33:55;1.70;;;1.60;;
6661;SDS011;3367;48.714;8.994;2023-05-07T08:36:23;3.53;;;2.30;;
6661;SDS011;3367;48.714;8.994;2023-05-07T08:38:50;2.70;;;1.87;;
6661;SDS011;3367;48.714;8.994;2023-05-07T08:41:17;1.80;;;1.70;;
6661;SDS011;3367;48.714;8.994;2023-05-07T08:43:46;2.10;;;1.93;;
6661;SDS011;3367;48.714;8.994;2023-05-07T08:46:15;1.80;;;1.70;;
6661;SDS011;3367;48.714;8.994;2023-05-07T08:48:45;1.70;;;1.60;;
6661;SDS011;3367;48.714;8.994;2023-05-07T08:51:16;2.67;;;2.17;;
6661;SDS011;3367;48.714;8.994;2023-05-07T08:53:44;1.97;;;1.87;;
6661;SDS011;3367;48.714;8.994;2023-05-07T08:56:13;2.20;;;2.10;;
6661;SDS011;3367;48.714;8.994;2023-05-07T08:58:41;2.33;;;2.00;;
6661;SDS011;3367;48.714;8.994;2023-05-07T09:01:08;2.33;;;2.13;;
6661;SDS011;3367;48.714;8.994;2023-05-07T09:03:38;2.10;;;1.90;;
6661;SDS011;3367;48.714;8.994;2023-05-07T09:06:05;2.70;;;1.87;;
6661;SDS011;3367;48.714;8.994;2023-05-07T09:08:34;2.27;;;2.17;;
6661;SDS011;3367;48.714;8.994;2023-05-07T09:11:01;3.47;;;1.80;;
6661;SDS011;3367;48.714;8.994;2023-05-07T09:13:28;2.40;;;1.90;;
6661;SDS011;3367;48.714;8.994;2023-05-07T09:15:55;1.60;;;1.47;;
6661;SDS011;3367;48.714;8.994;2023-05-07T09:18:23;2.13;;;1.93;;
6661;SDS011;3367;48.714;8.994;2023-05-07T09:20:50;2.07;;;1.97;;
6661;SDS011;3367;48.714;8.994;2023-05-07T09:23:17;3.63;;;2.00;;
6661;SDS011;3367;48.714;8.994;2023-05-07T09:25:45;1.93;;;1.83;;
6661;SDS011;3367;48.714;8.994;2023-05-07T09:28:11;2.43;;;1.87;;
6661;SDS011;3367;48.714;8.994;2023-05-07T09:30:38;2.13;;;2.00;;
6661;SDS011;3367;48.714;8.994;2023-05-07T09:33:05;2.13;;;2.00;;
6661;SDS011;3367;48.714;8.994;2023-05-07T09:35:32;3.37;;;2.43;;
6661;SDS011;3367;48.714;8.994;2023-05-07T09:37:59;2.20;;;2.10;;
6661;SDS011;3367;48.714;8.994;2023-05-07T09:40:28;2.90;;;2.40;;
6661;SDS011;3367;48.714;8.994;2023-05-07T09:43:07;5.03;;;2.30;;
6661;SDS011;3367;48.714;8.994;2023-05-07T09:45:35;1.80;;;1.70;;
6661;SDS011;3367;48.714;8.994;2023-05-07T09:48:04;3.80;;;2.27;;
6661;SDS011;3367;48.714;8.994;2023-05-07T09:50:32;3.10;;;2.90;;
6661;SDS011;3367;48.714;8.994;2023-05-07T09:53:03;3.70;;;2.13;;
6661;SDS011;3367;48.714;8.994;2023-05-07T09:55:30;2.70;;;2.50;;
6661;SDS011;3367;48.714;8.994;2023-05-07T09:57:58;2.37;;;2.17;;
6661;SDS011;3367;48.714;8.994;2023-05-07T10:00:27;2.63;;;2.13;;
6661;SDS011;3367;48.714;8.994;2023-05-07T10:02:55;5.00;;;2.23;;
6661;SDS011;3367;48.714;8.994;2023-05-07T10:05:23;3.20;;;2.47;;
6661;SDS011;3367;48.714;8.994;2023-05-07T10:07:51;3.57;;;3.27;;
6661;SDS011;3367;48.714;8.994;2023-05-07T10:10:19;2.60;;;2.40;;
6661;SDS011;3367;48.714;8.994;2023-05-07T10:12:47;2.33;;;1.90;;
6661;SDS011;3367;48.714;8.994;2023-05-07T10:15:16;4.33;;;2.17;;
6661;SDS011;3367;48.714;8.994;2023-05-07T10:17:43;2.93;;;2.53;;
6661;SDS011;3367;48.714;8.994;2023-05-07T10:20:10;2.90;;;2.10;;
6661;SDS011;3367;48.714;8.994;2023-05-07T10:22:38;2.33;;;2.20;;
6661;SDS011;3367;48.714;8.994;2023-05-07T10:25:09;4.17;;;2.20;;
6661;SDS011;3367;48.714;8.994;2023-05-07T10:27:42;2.50;;;2.23;;
6661;SDS011;3367;48.714;8.994;2023-05-07T10:30:13;2.87;;;2.03;;
6661;SDS011;3367;48.714;8.994;2023-05-07T10:32:47;6.13;;;2.43;;
6661;SDS011;3367;48.714;8.994;2023-05-07T10:35:16;2.23;;;2.10;;
6661;SDS011;3367;48.714;8.994;2023-05-07T10:37:46;2.33;;;2.00;;
6661;SDS011;3367;48.714;8.994;2023-05-07T10:40:13;3.87;;;1.90;;
6661;SDS011;3367;48.714;8.994;2023-05-07T10:42:53;2.30;;;2.10;;
6661;SDS011;3367;48.714;8.994;2023-05-07T10:45:23;2.40;;;2.03;;
6661;SDS011;3367;48.714;8.994;2023-05-07T10:48:06;2.00;;;1.87;;
6661;SDS011;3367;48.714;8.994;2023-05-07T10:50:34;3.57;;;2.30;;
6661;SDS011;3367;48.714;8.994;2023-05-07T10:55:49;4.30;;;2.20;;
6661;SDS011;3367;48.714;8.994;2023-05-07T10:58:23;2.80;;;2.30;;
6661;SDS011;3367;48.714;8.994;2023-05-07T11:00:55;2.70;;;1.90;;
6661;SDS011;3367;48.714;8.994;2023-05-07T11:03:22;2.13;;;1.90;;
6661;SDS011;3367;48.714;8.994;2023-05-07T11:06:07;2.30;;;2.07;;
6661;SDS011;3367;48.714;8.994;2023-05-07T11:08:54;1.97;;;1.87;;
6661;SDS011;3367;48.714;8.994;2023-05-07T11:14:13;2.63;;;2.43;;
6661;SDS011;3367;48.714;8.994;2023-05-07T11:16:41;2.30;;;2.20;;
6661;SDS011;3367;48.714;8.994;2023-05-07T11:19:09;2.60;;;2.37;;
6661;SDS011;3367;48.714;8.994;2023-05-07T11:21:36;3.60;;;1.93;;
6661;SDS011;3367;48.714;8.994;2023-05-07T11:24:05;2.20;;;2.00;;
6661;SDS011;3367;48.714;8.994;2023-05-07T11:26:41;3.17;;;1.70;;
6661;SDS011;3367;48.714;8.994;2023-05-07T11:29:12;4.00;;;2.40;;
6661;SDS011;3367;48.714;8.994;2023-05-07T11:31:42;2.33;;;2.13;;
6661;SDS011;3367;48.714;8.994;2023-05-07T11:34:09;3.60;;;2.90;;
6661;SDS011;3367;48.714;8.994;2023-05-07T11:36:40;2.60;;;2.40;;
6661;SDS011;3367;48.714;8.994;2023-05-07T11:39:22;2.20;;;2.10;;
6661;SDS011;3367;48.714;8.994;2023-05-07T11:41:50;4.63;;;2.40;;
6661;SDS011;3367;48.714;8.994;2023-05-07T11:44:17;2.27;;;2.17;;
6661;SDS011;3367;48.714;8.994;2023-05-07T11:46:45;7.47;;;2.43;;
6661;SDS011;3367;48.714;8.994;2023-05-07T11:49:12;8.93;;;3.07;;
6661;SDS011;3367;48.714;8.994;2023-05-07T11:51:39;3.30;;;2.83;;
6661;SDS011;3367;48.714;8.994;2023-05-07T11:54:07;3.37;;;2.90;;
6661;SDS011;3367;48.714;8.994;2023-05-07T11:56:36;4.50;;;2.70;;
6661;SDS011;3367;48.714;8.994;2023-05-07T11:59:04;5.90;;;4.03;;
6661;SDS011;3367;48.714;8.994;2023-05-07T12:01:31;7.20;;;2.57;;
6661;SDS011;3367;48.714;8.994;2023-05-07T12:03:59;4.97;;;1.80;;
6661;SDS011;3367;48.714;8.994;2023-05-07T12:06:29;2.90;;;1.50;;
6661;SDS011;3367;48.714;8.994;2023-05-07T12:08:56;4.27;;;2.13;;
6661;SDS011;3367;48.714;8.994;2023-05-07T12:11:23;1.60;;;1.40;;
6661;SDS011;3367;48.714;8.994;2023-05-07T12:13:51;2.90;;;1.60;;
6661;SDS011;3367;48.714;8.994;2023-05-07T12:16:17;2.93;;;1.50;;
6661;SDS011;3367;48.714;8.994;2023-05-07T12:18:45;1.83;;;1.50;;
6661;SDS011;3367;48.714;8.994;2023-05-07T12:21:14;4.70;;;2.10;;
6661;SDS011;3367;48.714;8.994;2023-05-07T12:23:42;3.07;;;2.87;;
6661;SDS011;3367;48.714;8.994;2023-05-07T12:26:09;2.50;;;1.87;;
6661;SDS011;3367;48.714;8.994;2023-05-07T12:28:36;2.40;;;2.30;;
6661;SDS011;3367;48.714;8.994;2023-05-07T12:31:04;3.77;;;2.50;;
6661;SDS011;3367;48.714;8.994;2023-05-07T12:33:31;1.90;;;1.80;;
6661;SDS011;3367;48.714;8.994;2023-05-07T12:36:00;2.03;;;1.80;;
6661;SDS011;3367;48.714;8.994;2023-05-07T12:38:34;2.30;;;2.10;;
6661;SDS011;3367;48.714;8.994;2023-05-07T12:41:02;1.93;;;1.77;;
6661;SDS011;3367;48.714;8.994;2023-05-07T12:43:29;6.73;;;2.13;;
6661;SDS011;3367;48.714;8.994;2023-05-07T12:45:56;2.53;;;2.33;;
6661;SDS011;3367;48.714;8.994;2023-05-07T12:48:25;2.60;;;2.07;;
6661;SDS011;3367;48.714;8.994;2023-05-07T12:50:53;3.17;;;2.33;;
6661;SDS011;3367;48.714;8.994;2023-05-07T12:53:21;5.80;;;2.40;;
6661;SDS011;3367;48.714;8.994;2023-05-07T12:55:52;3.57;;;1.97;;
6661;SDS011;3367;48.714;8.994;2023-05-07T12:58:21;2.50;;;1.83;;
6661;SDS011;3367;48.714;8.994;2023-05-07T13:00:50;1.93;;;1.83;;
6661;SDS011;3367;48.714;8.994;2023-05-07T13:03:21;2.00;;;1.90;;
6661;SDS011;3367;48.714;8.994;2023-05-07T13:05:50;2.93;;;2.40;;
6661;SDS011;3367;48.714;8.994;2023-05-07T13:08:27;2.80;;;2.27;;
6661;SDS011;3367;48.714;8.994;2023-05-07T13:10:57;5.30;;;2.80;;
6661;SDS011;3367;48.714;8.994;2023-05-07T13:13:24;4.40;;;2.30;;
6661;SDS011;3367;48.714;8.994;2023-05-07T13:15:51;2.97;;;2.43;;
6661;SDS011;3367;48.714;8.994;2023-05-07T13:18:18;4.30;;;2.67;;
6661;SDS011;3367;48.714;8.994;2023-05-07T13:20:45;3.37;;;2.50;;
6661;SDS011;3367;48.714;8.994;2023-05-07T13:23:11;5.83;;;3.07;;
6661;SDS011;3367;48.714;8.994;2023-05-07T13:25:38;3.30;;;2.73;;
6661;SDS011;3367;48.714;8.994;2023-05-07T13:28:06;5.37;;;2.77;;
6661;SDS011;3367;48.714;8.994;2023-05-07T13:30:33;3.60;;;2.77;;
6661;SDS011;3367;48.714;8.994;2023-05-07T13:33:00;3.17;;;2.37;;
6661;SDS011;3367;48.714;8.994;2023-05-07T13:35:27;2.90;;;2.60;;
6661;SDS011;3367;48.714;8.994;2023-05-07T13:37:54;4.03;;;2.60;;
6661;SDS011;3367;48.714;8.994;2023-05-07T13:40:21;2.70;;;2.50;;
6661;SDS011;3367;48.714;8.994;2023-05-07T13:42:48;3.30;;;2.67;;
6661;SDS011;3367;48.714;8.994;2023-05-07T13:45:17;6.00;;;2.60;;
6661;SDS011;3367;48.714;8.994;2023-05-07T13:47:44;3.37;;;3.07;;
6661;SDS011;3367;48.714;8.994;2023-05-07T13:50:12;5.40;;;2.60;;
6661;SDS011;3367;48.714;8.994;2023-05-07T13:52:40;6.47;;;3.47;;
6661;SDS011;3367;48.714;8.994;2023-05-07T13:55:10;4.73;;;2.70;;
6661;SDS011;3367;48.714;8.994;2023-05-07T13:57:37;4.70;;;3.20;;
6661;SDS011;3367;48.714;8.994;2023-05-07T14:00:04;7.90;;;4.13;;
6661;SDS011;3367;48.714;8.994;2023-05-07T14:02:33;8.27;;;4.43;;
6661;SDS011;3367;48.714;8.994;2023-05-07T14:05:00;5.17;;;4.47;;
6661;SDS011;3367;48.714;8.994;2023-05-07T14:07:27;6.30;;;4.70;;
6661;SDS011;3367;48.714;8.994;2023-05-07T14:09:54;7.33;;;4.97;;
6661;SDS011;3367;48.714;8.994;2023-05-07T14:12:21;5.10;;;4.60;;
6661;SDS011;3367;48.714;8.994;2023-05-07T14:14:48;5.60;;;4.73;;
6661;SDS011;3367;48.714;8.994;2023-05-07T14:17:15;6.03;;;4.40;;
6661;SDS011;3367;48.714;8.994;2023-05-07T14:19:44;19.73;;;9.27;;
6661;SDS011;3367;48.714;8.994;2023-05-07T14:22:10;20.43;;;9.20;;
6661;SDS011;3367;48.714;8.994;2023-05-07T14:24:39;19.07;;;10.40;;
6661;SDS011;3367;48.714;8.994;2023-05-07T14:27:06;13.70;;;8.43;;
6661;SDS011;3367;48.714;8.994;2023-05-07T14:29:32;8.17;;;4.80;;
6661;SDS011;3367;48.714;8.994;2023-05-07T14:32:00;5.13;;;3.27;;
6661;SDS011;3367;48.714;8.994;2023-05-07T14:34:27;4.73;;;2.70;;
6661;SDS011;3367;48.714;8.994;2023-05-07T14:36:55;5.03;;;2.87;;
6661;SDS011;3367;48.714;8.994;2023-05-07T14:39:22;3.70;;;2.80;;
6661;SDS011;3367;48.714;8.994;2023-05-07T14:41:48;5.70;;;3.40;;
6661;SDS011;3367;48.714;8.994;2023-05-07T14:44:15;3.07;;;2.80;;
6661;SDS011;3367;48.714;8.994;2023-05-07T14:46:42;3.03;;;1.90;;
6661;SDS011;3367;48.714;8.994;2023-05-07T14:49:08;2.53;;;2.43;;
6661;SDS011;3367;48.714;8.994;2023-05-07T14:51:41;2.80;;;2.60;;
6661;SDS011;3367;48.714;8.994;2023-05-07T14:54:10;3.33;;;2.30;;
6661;SDS011;3367;48.714;8.994;2023-05-07T14:56:37;5.57;;;2.37;;
6661;SDS011;3367;48.714;8.994;2023-05-07T14:59:03;3.07;;;2.77;;
6661;SDS011;3367;48.714;8.994;2023-05-07T15:01:30;3.03;;;2.80;;
6661;SDS011;3367;48.714;8.994;2023-05-07T15:03:57;3.00;;;2.80;;
6661;SDS011;3367;48.714;8.994;2023-05-07T15:06:24;4.87;;;2.90;;
6661;SDS011;3367;48.714;8.994;2023-05-07T15:08:51;3.70;;;2.63;;
6661;SDS011;3367;48.714;8.994;2023-05-07T15:11:19;4.73;;;2.70;;
6661;SDS011;3367;48.714;8.994;2023-05-07T15:13:46;2.37;;;2.27;;
6661;SDS011;3367;48.714;8.994;2023-05-07T15:16:13;6.60;;;2.90;;
6661;SDS011;3367;48.714;8.994;2023-05-07T15:18:40;3.67;;;2.93;;
6661;SDS011;3367;48.714;8.994;2023-05-07T15:21:06;3.30;;;3.03;;
6661;SDS011;3367;48.714;8.994;2023-05-07T15:23:33;2.93;;;2.73;;